KBQK

Brunswick Golden Isles Airport

Brunswick, Georgia, USA
METAR KBQK 181955Z AUTO 22007KT 10SM BKN020 OVC030 24/19 A3016 RMK AO2
Observed Flight Rules
Dec-18 @ 19:55 UTC (23 minutes ago) Marginal Visual Flight Rules
Wind Visibility Clouds
220° at 7 knots 10 miles
  • Broken at 2,000' AGL
  • Overcast at 3,000' AGL
Temperatures Readings
Current 24°C / 75°F
Dewpoint 19°C / 66°F
Humidity 74%
Altimeter 30.16" Hg
Pressure 1021 hPa
Elevation 8
METAR KBQK 181955Z AUTO 22007KT 10SM BKN020 OVC030 24/19 A3016 RMK AO2
Observed Flight Rules
Dec-18 @ 19:55 UTC
(23 minutes ago)
MVFR
Wind Visibility
220° at 7 knots 10 miles
Clouds
  • Broken at 2,000' AGL
  • Overcast at 3,000' AGL
Temperature Dewpoint
24°C / 75°F 19°C / 66°F
Humidity Altimeter Pressure
74% 30.16" Hg 1021 hPa